Time;durP1;ratioP1;P1;durP2;ratioP2;P2;SDS_P1;SDS_P2;PMS_P1;PMS_P2;Temp;Humidity;BMP_temperature;BMP_pressure;BME280_temperature;BME280_humidity;BME280_pressure;Samples;Min_cycle;Max_cycle;Signal;HPM_P1;HPM_P2
2022/10/06 00:00:00;;;;;;;3.03;2.43;;;;;;;9.79;100.00;97245.41;5030856;28;101924;-60
2022/10/06 00:02:27;;;;;;;3.53;2.30;;;;;;;9.75;100.00;97245.06;5030712;28;105048;-59
2022/10/06 00:04:55;;;;;;;2.67;2.47;;;;;;;9.75;100.00;97252.25;5029985;28;103887;-59
2022/10/06 00:07:24;;;;;;;4.23;2.83;;;;;;;9.65;100.00;97249.28;5030822;28;101906;-59
2022/10/06 00:09:51;;;;;;;2.77;2.20;;;;;;;9.67;100.00;97257.84;5031328;27;102858;-59
2022/10/06 00:12:18;;;;;;;5.93;2.47;;;;;;;9.50;100.00;97256.81;5029971;28;104989;-59
2022/10/06 00:14:45;;;;;;;2.50;2.30;;;;;;;9.60;100.00;97262.44;5033933;28;101851;-59
2022/10/06 00:17:12;;;;;;;2.23;1.83;;;;;;;9.56;100.00;97261.25;5029758;28;104178;-59
2022/10/06 00:19:39;;;;;;;2.60;2.40;;;;;;;9.60;100.00;97257.13;5030454;28;102323;-59
2022/10/06 00:22:06;;;;;;;2.03;1.90;;;;;;;9.45;100.00;97256.69;5030390;28;104930;-59
2022/10/06 00:24:35;;;;;;;2.57;2.23;;;;;;;9.40;100.00;97277.75;5029907;28;105620;-59
2022/10/06 00:27:02;;;;;;;3.60;2.47;;;;;;;9.42;100.00;97270.38;5031859;28;101807;-59
2022/10/06 00:29:29;;;;;;;2.50;2.30;;;;;;;9.47;100.00;97270.53;5030163;28;104812;-59
2022/10/06 00:31:57;;;;;;;4.03;2.30;;;;;;;9.22;100.00;97267.16;5029459;28;103843;-59
2022/10/06 00:34:24;;;;;;;2.73;2.53;;;;;;;9.31;100.00;97279.91;5030248;28;101898;-59
2022/10/06 00:36:52;;;;;;;6.00;2.30;;;;;;;9.27;100.00;97284.03;5033009;28;103558;-59
2022/10/06 00:39:20;;;;;;;3.13;2.10;;;;;;;9.32;100.00;97280.72;5031645;27;101938;-59
2022/10/06 00:41:49;;;;;;;5.10;2.63;;;;;;;9.25;100.00;97277.31;5030294;28;105135;-59
2022/10/06 00:44:16;;;;;;;4.10;2.40;;;;;;;9.18;100.00;97290.66;5029511;28;105440;-59
2022/10/06 00:46:45;;;;;;;4.30;2.50;;;;;;;9.20;100.00;97287.78;5029899;28;101932;-59
2022/10/06 00:49:18;;;;;;;4.10;2.80;;;;;;;9.21;100.00;97290.22;5029670;28;105134;-60
2022/10/06 00:51:49;;;;;;;5.73;3.50;;;;;;;9.09;100.00;97291.16;5029271;28;105535;-59
2022/10/06 00:54:18;;;;;;;5.90;3.30;;;;;;;9.05;100.00;97284.69;5030015;28;101781;-59
2022/10/06 00:56:44;;;;;;;6.83;4.20;;;;;;;9.00;100.00;97300.44;5029706;28;105070;-59
2022/10/06 00:59:15;;;;;;;6.50;3.87;;;;;;;8.95;100.00;97290.47;5032460;28;101852;-60
2022/10/06 01:01:50;;;;;;;4.73;3.33;;;;;;;8.98;100.00;97292.69;5029819;28;105132;-60
2022/10/06 01:04:18;;;;;;;6.57;3.97;;;;;;;8.93;100.00;97304.97;5029315;28;105951;-59
2022/10/06 01:06:52;;;;;;;4.80;3.77;;;;;;;8.97;100.00;97303.50;5029831;28;101764;-59
2022/10/06 01:09:21;;;;;;;5.97;3.60;;;;;;;9.02;100.00;97304.50;5029605;28;105572;-59
2022/10/06 01:11:50;;;;;;;4.00;3.17;;;;;;;8.85;100.00;97311.38;5029061;28;105781;-59
2022/10/06 01:14:20;;;;;;;5.47;3.83;;;;;;;8.89;100.00;97312.56;5029635;28;101943;-59
2022/10/06 01:16:51;;;;;;;4.60;3.37;;;;;;;8.97;100.00;97317.59;5029374;28;105192;-59
2022/10/06 01:19:32;;;;;;;5.80;3.20;;;;;;;8.91;100.00;97325.59;5032583;28;104024;-59
2022/10/06 01:22:04;;;;;;;4.67;3.10;;;;;;;8.84;100.00;97325.66;5029538;28;105141;-59
2022/10/06 01:24:36;;;;;;;3.47;3.17;;;;;;;8.87;100.00;97322.59;5028918;28;105598;-59
2022/10/06 01:27:06;;;;;;;7.83;3.50;;;;;;;8.80;100.00;97323.66;5029483;28;101857;-59
2022/10/06 01:29:33;;;;;;;3.00;2.70;;;;;;;8.76;100.00;97325.09;5029204;28;105572;-60
2022/10/06 01:32:00;;;;;;;4.30;2.70;;;;;;;8.78;100.00;97325.72;5028492;28;106022;-59
2022/10/06 01:34:27;;;;;;;4.67;2.90;;;;;;;8.78;100.00;97317.78;5029279;28;102063;-59
2022/10/06 01:36:55;;;;;;;2.97;2.60;;;;;;;8.81;100.00;97319.97;5029293;28;104338;-59
2022/10/06 01:39:22;;;;;;;2.50;2.30;;;;;;;8.50;100.00;97327.97;5028858;28;105436;-59
2022/10/06 01:41:51;;;;;;;2.50;2.30;;;;;;;8.55;100.00;97328.13;5032533;28;102047;-59
2022/10/06 01:44:18;;;;;;;4.73;2.10;;;;;;;8.62;100.00;97321.75;5028480;28;105977;-59
2022/10/06 01:46:46;;;;;;;2.87;2.57;;;;;;;8.58;100.00;97338.31;5029003;28;102050;-60
2022/10/06 01:49:13;;;;;;;3.77;2.70;;;;;;;8.61;100.00;97327.28;5028576;28;105364;-59
2022/10/06 01:51:41;;;;;;;3.63;2.50;;;;;;;8.54;100.00;97343.22;5028552;28;103583;-59
2022/10/06 01:54:07;;;;;;;2.97;2.67;;;;;;;8.61;100.00;97340.53;5029003;28;102146;-59
2022/10/06 01:56:35;;;;;;;2.80;2.50;;;;;;;8.63;100.00;97334.00;5029169;28;103669;-59
2022/10/06 01:59:04;;;;;;;2.90;2.60;;;;;;;8.47;100.00;97349.59;5028242;28;105367;-59
2022/10/06 02:01:31;;;;;;;5.90;2.73;;;;;;;8.58;100.00;97341.78;5028757;28;102396;-59
2022/10/06 02:03:59;;;;;;;3.00;2.80;;;;;;;8.58;100.00;97346.25;5031707;28;104971;-59
2022/10/06 02:06:26;;;;;;;4.10;2.57;;;;;;;8.63;100.00;97346.44;5028976;28;101913;-59
2022/10/06 02:08:53;;;;;;;3.17;2.53;;;;;;;8.60;100.00;97333.59;5028872;28;105261;-59
2022/10/06 02:11:20;;;;;;;3.03;2.70;;;;;;;8.60;100.00;97342.38;5028444;28;105094;-59
2022/10/06 02:13:49;;;;;;;2.73;2.50;;;;;;;8.34;100.00;97349.69;5028305;28;101864;-60
2022/10/06 02:16:18;;;;;;;2.63;2.43;;;;;;;8.32;100.00;97333.16;5028861;28;105088;-59
2022/10/06 02:18:45;;;;;;;3.20;2.90;;;;;;;8.42;100.00;97341.47;5028238;28;105032;-59
2022/10/06 02:21:18;;;;;;;4.83;2.80;;;;;;;8.39;100.00;97347.22;5028821;28;101926;-60
2022/10/06 02:23:46;;;;;;;2.90;2.33;;;;;;;8.40;100.00;97344.31;5029910;28;102905;-60
2022/10/06 02:26:16;;;;;;;3.37;2.27;;;;;;;8.33;100.00;97348.03;5031524;28;105347;-59
2022/10/06 02:28:44;;;;;;;3.03;2.20;;;;;;;8.43;100.00;97335.13;5028455;28;105047;-59
2022/10/06 02:31:14;;;;;;;5.27;2.70;;;;;;;8.38;100.00;97345.56;5028056;28;106095;-59
2022/10/06 02:33:43;;;;;;;4.60;2.60;;;;;;;8.43;100.00;97353.69;5030099;27;102240;-59
2022/10/06 02:36:13;;;;;;;5.33;2.57;;;;;;;8.40;100.00;97349.63;5031761;28;104917;-59
2022/10/06 02:38:41;;;;;;;2.60;2.40;;;;;;;8.40;100.00;97356.78;5031564;28;105445;-59
2022/10/06 02:41:09;;;;;;;3.20;2.63;;;;;;;8.44;100.00;97352.66;5032113;28;101881;-60
2022/10/06 02:43:37;;;;;;;6.70;2.60;;;;;;;8.47;100.00;97355.72;5031882;28;105219;-59
2022/10/06 02:46:07;;;;;;;3.33;2.37;;;;;;;8.47;100.00;97354.91;5031383;28;105434;-59
2022/10/06 02:48:35;;;;;;;2.23;2.13;;;;;;;8.24;100.00;97360.72;5034766;28;101885;-60
2022/10/06 02:51:10;;;;;;;2.40;2.20;;;;;;;8.18;100.00;97358.09;5031273;28;105668;-59
2022/10/06 02:53:39;;;;;;;5.53;2.83;;;;;;;8.25;100.00;97372.16;5031785;28;102075;-59
2022/10/06 02:56:09;;;;;;;2.47;2.37;;;;;;;8.20;100.00;97369.31;5033338;28;102457;-59
2022/10/06 02:58:37;;;;;;;2.40;2.20;;;;;;;8.13;100.00;97371.16;5030874;28;105251;-59
2022/10/06 03:01:10;;;;;;;2.57;2.33;;;;;;;8.21;100.00;97368.28;5031636;28;101795;-59
2022/10/06 03:03:38;;;;;;;2.43;2.17;;;;;;;8.13;100.00;97373.81;5031828;28;104707;-59
2022/10/06 03:06:20;;;;;;;4.20;2.53;;;;;;;8.22;100.00;97369.91;5031154;28;105402;-59
2022/10/06 03:08:48;;;;;;;3.00;2.23;;;;;;;8.19;100.00;97378.25;5035027;28;101958;-59
2022/10/06 03:11:18;;;;;;;3.07;2.20;;;;;;;8.11;100.00;97383.78;5030600;28;105966;-59
2022/10/06 03:13:45;;;;;;;2.83;2.40;;;;;;;8.18;100.00;97379.28;5031507;28;101842;-59
2022/10/06 03:16:17;;;;;;;3.20;2.33;;;;;;;8.18;100.00;97384.59;5031630;28;105638;-59
2022/10/06 03:18:45;;;;;;;2.60;2.40;;;;;;;8.17;100.00;97385.59;5031049;28;105555;-59
2022/10/06 03:21:15;;;;;;;4.23;2.30;;;;;;;8.15;100.00;97383.19;5031427;28;101837;-59
2022/10/06 03:23:43;;;;;;;3.00;2.80;;;;;;;8.05;100.00;97395.22;5031488;28;104973;-59
2022/10/06 03:26:12;;;;;;;3.33;2.70;;;;;;;8.09;100.00;97394.63;5030291;28;105468;-59
2022/10/06 03:28:39;;;;;;;2.97;2.67;;;;;;;8.08;100.00;97400.13;5031381;28;101745;-59
2022/10/06 03:31:06;;;;;;;3.40;2.37;;;;;;;8.15;100.00;97398.25;5034089;28;105246;-59
2022/10/06 03:33:35;;;;;;;3.43;2.60;;;;;;;8.17;100.00;97397.00;5031283;28;102466;-59
2022/10/06 03:36:04;;;;;;;5.00;2.57;;;;;;;8.00;100.00;97408.28;5030792;28;104802;-60
2022/10/06 03:38:33;;;;;;;2.80;2.40;;;;;;;7.95;100.00;97408.09;5030629;28;104091;-59
2022/10/06 03:41:06;;;;;;;2.50;2.27;;;;;;;7.97;100.00;97411.38;5031001;28;101947;-59
2022/10/06 03:43:35;;;;;;;3.70;2.70;;;;;;;8.04;100.00;97406.84;5031180;28;105051;-59
2022/10/06 03:46:02;;;;;;;3.63;2.93;;;;;;;7.96;100.00;97415.03;5029273;27;105033;-59
2022/10/06 03:48:32;;;;;;;3.53;3.20;;;;;;;7.97;100.00;97406.88;5030552;28;102008;-60
2022/10/06 03:51:02;;;;;;;4.10;3.17;;;;;;;7.93;100.00;97410.97;5030998;28;104877;-60
2022/10/06 03:53:30;;;;;;;4.63;3.50;;;;;;;7.96;100.00;97417.69;5033741;28;105311;-59
2022/10/06 03:56:04;;;;;;;3.30;3.00;;;;;;;7.98;100.00;97416.47;5030902;28;105478;-59
2022/10/06 03:58:34;;;;;;;3.57;3.10;;;;;;;7.96;100.00;97425.63;5030246;28;105703;-59
2022/10/06 04:01:03;;;;;;;4.50;3.40;;;;;;;7.94;100.00;97415.25;5030709;28;101827;-60
2022/10/06 04:03:31;;;;;;;7.73;4.63;;;;;;;7.92;100.00;97419.13;5030779;28;104812;-59
2022/10/06 04:06:01;;;;;;;17.10;8.80;;;;;;;7.98;100.00;97423.59;5030106;28;105533;-59
2022/10/06 04:08:28;;;;;;;3.90;3.50;;;;;;;7.81;100.00;97422.41;5030788;28;101904;-59
2022/10/06 04:11:04;;;;;;;6.40;5.20;;;;;;;7.90;100.00;97421.97;5030639;28;105167;-59
2022/10/06 04:13:32;;;;;;;4.10;3.70;;;;;;;7.77;100.00;97432.63;5029768;28;105363;-59
2022/10/06 04:16:00;;;;;;;4.77;3.67;;;;;;;7.81;100.00;97425.06;5034169;28;102002;-59
2022/10/06 04:18:27;;;;;;;5.10;2.97;;;;;;;7.74;100.00;97440.16;5030113;28;104246;-59
2022/10/06 04:20:59;;;;;;;7.30;4.07;;;;;;;7.76;100.00;97435.47;5030514;28;102026;-59
2022/10/06 04:23:26;;;;;;;4.60;3.63;;;;;;;7.74;100.00;97443.59;5030196;28;105258;-59
2022/10/06 04:25:58;;;;;;;5.77;3.40;;;;;;;7.71;100.00;97443.22;5029808;28;103922;-59
2022/10/06 04:28:26;;;;;;;3.33;3.03;;;;;;;7.72;100.00;97455.41;5030406;28;102068;-59
2022/10/06 04:30:58;;;;;;;4.17;3.20;;;;;;;7.79;100.00;97449.09;5013812;28;104848;-59
2022/10/06 04:33:26;;;;;;;5.07;3.73;;;;;;;7.80;100.00;97448.06;5029533;28;105471;-59
2022/10/06 04:35:58;;;;;;;3.90;3.53;;;;;;;7.83;100.00;97447.66;5031641;28;101981;-59
2022/10/06 04:38:26;;;;;;;3.20;3.00;;;;;;;7.82;100.00;97447.88;5033116;28;105245;-59
2022/10/06 04:40:54;;;;;;;3.47;3.17;;;;;;;7.78;100.00;97458.06;5030522;28;101997;-59
2022/10/06 04:43:21;;;;;;;3.70;3.17;;;;;;;7.69;100.00;97456.66;5030521;28;103751;-59
2022/10/06 04:46:09;;;;;;;5.57;3.40;;;;;;;7.67;100.00;97453.41;5029580;28;105521;-59
2022/10/06 04:48:36;;;;;;;3.27;2.80;;;;;;;7.65;100.00;97457.28;5030206;28;101953;-59
2022/10/06 04:51:08;;;;;;;4.30;3.00;;;;;;;7.68;100.00;97464.81;5030484;28;104815;-59
2022/10/06 04:53:34;;;;;;;4.40;3.07;;;;;;;7.63;100.00;97468.06;5029387;28;105062;-59
2022/10/06 04:56:18;;;;;;;3.70;2.73;;;;;;;7.59;100.00;97463.41;5031359;27;101818;-59
2022/10/06 04:58:47;;;;;;;4.50;2.97;;;;;;;7.63;100.00;97470.72;5031760;27;102780;-59
2022/10/06 05:01:18;;;;;;;6.17;3.40;;;;;;;7.60;100.00;97472.97;5033204;28;105343;-60
2022/10/06 05:03:48;;;;;;;6.00;3.20;;;;;;;7.64;100.00;97471.53;5030359;28;104879;-59
2022/10/06 05:06:47;;;;;;;5.93;3.30;;;;;;;7.64;100.00;97480.28;5029568;28;105438;-59
2022/10/06 05:09:15;;;;;;;4.93;3.27;;;;;;;7.59;100.00;97476.63;5030094;28;101844;-59
2022/10/06 05:11:48;;;;;;;5.30;3.20;;;;;;;7.59;100.00;97476.63;5030014;28;105153;-59
2022/10/06 05:14:18;;;;;;;3.80;3.13;;;;;;;7.59;100.00;97481.91;5029409;28;105306;-59
2022/10/06 05:16:54;;;;;;;6.20;3.50;;;;;;;7.54;100.00;97479.06;5029927;28;102027;-59
2022/10/06 05:19:21;;;;;;;4.07;3.03;;;;;;;7.61;100.00;97485.16;5029741;28;105063;-59
2022/10/06 05:22:05;;;;;;;3.33;2.70;;;;;;;7.55;100.00;97484.16;5032134;28;105364;-59
2022/10/06 05:24:34;;;;;;;6.20;3.20;;;;;;;7.58;100.00;97485.59;5030008;28;104979;-59
2022/10/06 05:27:20;;;;;;;3.33;3.03;;;;;;;7.48;100.00;97491.28;5028901;28;105325;-59
2022/10/06 05:29:47;;;;;;;4.83;3.43;;;;;;;7.61;100.00;97493.09;5029649;28;102226;-59
2022/10/06 05:32:16;;;;;;;4.03;3.20;;;;;;;7.65;100.00;97491.69;5029671;28;104796;-59
2022/10/06 05:34:43;;;;;;;7.13;3.67;;;;;;;7.66;100.00;97493.31;5028569;28;105242;-59
2022/10/06 05:37:33;;;;;;;6.17;3.20;;;;;;;7.67;100.00;97494.94;5029572;28;101908;-59
2022/10/06 05:40:00;;;;;;;4.00;3.33;;;;;;;7.76;100.00;97493.72;5029597;28;104784;-59
2022/10/06 05:42:27;;;;;;;6.43;3.40;;;;;;;7.80;100.00;97500.22;5028902;28;104649;-59
2022/10/06 05:44:54;;;;;;;5.27;3.40;;;;;;;7.74;100.00;97504.50;5032943;28;101881;-59
2022/10/06 05:47:32;;;;;;;11.53;4.07;;;;;;;7.80;100.00;97505.53;5028655;28;105045;-59
2022/10/06 05:50:01;;;;;;;5.97;3.07;;;;;;;7.77;100.00;97511.22;5028872;28;101851;-59
2022/10/06 05:52:29;;;;;;;4.27;3.07;;;;;;;7.82;100.00;97511.41;5029144;28;105426;-59
2022/10/06 05:54:57;;;;;;;4.03;2.83;;;;;;;7.99;100.00;97512.63;5027911;28;105473;-59
2022/10/06 05:57:28;;;;;;;5.77;3.17;;;;;;;8.00;100.00;97514.22;5028870;28;101845;-59
2022/10/06 05:59:55;;;;;;;5.23;3.00;;;;;;;8.00;100.00;97517.72;5027500;28;104870;-59
2022/10/06 06:02:22;;;;;;;3.73;3.10;;;;;;;8.17;100.00;97518.06;5028283;28;105043;-59
2022/10/06 06:04:50;;;;;;;4.90;3.40;;;;;;;8.09;100.00;97516.47;5028693;28;101952;-59
2022/10/06 06:07:18;;;;;;;4.67;3.63;;;;;;;8.16;100.00;97522.56;5031020;27;104885;-60
2022/10/06 06:09:47;;;;;;;5.20;3.67;;;;;;;8.22;100.00;97526.25;5028601;28;102053;-59
2022/10/06 06:12:15;;;;;;;5.03;3.00;;;;;;;8.35;100.00;97532.31;5028859;28;105606;-59
2022/10/06 06:17:50;;;;;;;4.43;3.70;;;;;;;8.67;100.00;97538.56;5028592;28;102242;-59
2022/10/06 06:20:18;;;;;;;6.50;3.53;;;;;;;8.89;100.00;97539.88;5028439;28;105540;-59
2022/10/06 06:22:45;;;;;;;7.87;3.30;;;;;;;8.94;100.00;97538.19;5027873;28;105252;-59
2022/10/06 06:25:12;;;;;;;5.17;3.40;;;;;;;9.02;100.00;97550.41;5028525;28;101840;-60
2022/10/06 06:27:41;;;;;;;4.30;3.07;;;;;;;9.22;100.00;97548.47;5028187;28;105846;-59
2022/10/06 06:30:09;;;;;;;5.30;3.63;;;;;;;9.33;100.00;97548.59;5031513;28;105448;-59
2022/10/06 06:32:36;;;;;;;12.40;6.47;;;;;;;9.47;100.00;97554.63;5028423;28;105214;-59
2022/10/06 06:35:04;;;;;;;10.37;5.57;;;;;;;9.74;100.00;97548.91;5027561;28;105316;-59
2022/10/06 06:37:33;;;;;;;8.50;5.80;;;;;;;10.11;100.00;97563.13;5028256;28;102359;-60
2022/10/06 06:40:01;;;;;;;10.13;6.63;;;;;;;10.25;100.00;97561.97;5025400;28;105001;-60
2022/10/06 06:42:30;;;;;;;14.33;7.63;;;;;;;10.45;100.00;97567.88;5026527;28;105523;-60
2022/10/06 06:45:12;;;;;;;13.30;7.33;;;;;;;10.73;100.00;97568.19;5025247;28;102131;-60
2022/10/06 06:51:26;;;;;;;14.87;8.73;;;;;;;11.17;100.00;97576.66;5019714;28;105955;-60
2022/10/06 06:53:58;;;;;;;10.77;7.50;;;;;;;11.25;100.00;97562.22;5032065;28;102601;-60
2022/10/06 06:59:51;;;;;;;8.47;6.23;;;;;;;11.73;100.00;97577.09;5028212;28;101872;-59
2022/10/06 07:02:20;;;;;;;5.90;4.33;;;;;;;11.92;100.00;97575.16;5026795;28;104535;-60
2022/10/06 07:04:48;;;;;;;6.47;4.97;;;;;;;12.18;100.00;97574.72;5025853;28;105438;-60
2022/10/06 07:07:23;;;;;;;4.47;3.27;;;;;;;12.39;100.00;97576.81;5028501;28;101851;-58
2022/10/06 07:09:53;;;;;;;3.70;3.40;;;;;;;12.53;100.00;97584.34;5028137;28;105499;-59
2022/10/06 07:12:24;;;;;;;4.40;2.50;;;;;;;12.57;100.00;97585.50;5007776;28;105186;-59
2022/10/06 07:26:31;;;;;;;2.80;2.00;;;;;;;13.33;100.00;97591.41;5010837;28;104756;-60
2022/10/06 07:28:59;;;;;;;3.17;1.90;;;;;;;13.49;100.00;97592.47;5011460;28;101919;-59
2022/10/06 07:31:32;;;;;;;6.07;2.20;;;;;;;13.68;100.00;97592.03;5011518;28;105383;-59
2022/10/06 07:34:01;;;;;;;3.17;2.10;;;;;;;13.93;100.00;97597.00;5044270;27;105232;-59
2022/10/06 07:36:32;;;;;;;1.90;1.80;;;;;;;13.71;100.00;97596.09;5031232;28;102051;-60
2022/10/06 07:38:59;;;;;;;2.33;1.83;;;;;;;13.78;100.00;97604.75;5034109;28;105285;-60
2022/10/06 07:41:27;;;;;;;2.30;1.80;;;;;;;13.97;100.00;97598.97;5016611;28;101943;-60
2022/10/06 07:43:59;;;;;;;6.37;2.00;;;;;;;14.21;100.00;97596.97;5031437;28;104767;-61
2022/10/06 07:46:32;;;;;;;2.83;1.70;;;;;;;14.29;100.00;97597.38;5030484;28;105370;-59
2022/10/06 07:49:05;;;;;;;5.53;2.30;;;;;;;14.37;100.00;97605.00;5030645;28;101798;-60
2022/10/06 07:51:45;;;;;;;2.37;1.93;;;;;;;14.53;100.00;97596.16;5031167;28;104994;-60
2022/10/06 07:54:12;;;;;;;4.43;1.90;;;;;;;14.68;100.00;97606.25;5030554;28;105406;-60
2022/10/06 07:57:18;;;;;;;5.17;2.10;;;;;;;15.16;100.00;97606.38;5032442;28;101852;-60
2022/10/06 07:59:46;;;;;;;6.13;1.80;;;;;;;15.20;100.00;97605.63;5031051;28;105218;-59
2022/10/06 08:02:14;;;;;;;3.27;2.00;;;;;;;15.21;100.00;97612.59;5033802;28;105333;-59
2022/10/06 08:04:40;;;;;;;8.37;2.37;;;;;;;15.29;100.00;97611.34;5031145;28;105130;-60
2022/10/06 08:07:09;;;;;;;4.53;2.07;;;;;;;15.22;100.00;97616.91;5030412;28;105669;-60
2022/10/06 08:09:36;;;;;;;6.47;2.17;;;;;;;15.45;100.00;97622.03;5030993;28;101769;-60
2022/10/06 08:12:31;;;;;;;5.80;1.90;;;;;;;15.70;100.00;97613.47;5030972;28;105167;-60
2022/10/06 08:14:52;;;;;;;3.57;2.10;;;;;;;16.10;100.00;97613.84;5030090;28;105146;-60
2022/10/06 08:18:09;;;;;;;4.37;1.60;;;;;;;16.45;100.00;97624.91;5030890;28;102055;-60
2022/10/06 08:20:36;;;;;;;4.90;1.90;;;;;;;16.45;100.00;97623.00;5030789;28;104078;-60
2022/10/06 08:23:11;;;;;;;3.57;1.63;;;;;;;16.43;100.00;97621.66;5030086;28;105258;-60
2022/10/06 08:25:55;;;;;;;3.00;1.60;;;;;;;16.70;100.00;97622.38;5034143;28;101823;-60
2022/10/06 08:28:23;;;;;;;7.30;1.77;;;;;;;16.73;100.00;97616.50;5030075;28;105270;-61
2022/10/06 08:30:53;;;;;;;1.70;1.60;;;;;;;16.83;100.00;97621.91;5029930;27;101893;-59
2022/10/06 08:33:20;;;;;;;1.60;1.50;;;;;;;16.92;100.00;97625.75;5030722;28;105288;-60
2022/10/06 08:35:52;;;;;;;2.30;1.60;;;;;;;16.95;100.00;97626.03;5029471;28;105119;-60
2022/10/06 08:38:20;;;;;;;2.60;1.70;;;;;;;17.19;100.00;97627.25;5030299;28;101930;-60
2022/10/06 08:40:48;;;;;;;2.37;1.43;;;;;;;17.28;100.00;97641.78;5030603;28;105031;-60
2022/10/06 08:43:21;;;;;;;2.37;1.60;;;;;;;17.53;100.00;97641.09;5029563;28;105399;-60
2022/10/06 08:45:59;;;;;;;3.07;1.70;;;;;;;17.64;100.00;97648.13;5030419;28;101984;-60
2022/10/06 08:48:27;;;;;;;2.77;1.47;;;;;;;17.83;100.00;97641.22;5013203;28;106074;-59
2022/10/06 08:51:06;;;;;;;3.37;1.40;;;;;;;18.03;100.00;97643.97;5011277;28;102146;-60
2022/10/06 08:53:39;;;;;;;4.00;1.70;;;;;;;18.12;100.00;97639.63;5017105;28;102705;-60
2022/10/06 08:56:17;;;;;;;1.50;1.40;;;;;;;18.22;100.00;97650.44;5029506;28;105446;-60
2022/10/06 08:58:52;;;;;;;3.60;1.70;;;;;;;18.45;100.00;97639.16;5031724;27;101775;-60
2022/10/06 09:01:23;;;;;;;3.53;1.80;;;;;;;18.25;100.00;97650.69;5031727;28;102862;-60
2022/10/06 09:03:52;;;;;;;3.67;1.80;;;;;;;18.52;100.00;97645.09;5029620;28;105337;-60
2022/10/06 09:06:41;;;;;;;3.20;1.70;;;;;;;18.60;100.00;97641.84;5029998;28;101953;-61
2022/10/06 09:09:20;;;;;;;4.13;2.00;;;;;;;18.92;100.00;97645.03;5030141;28;105508;-60
2022/10/06 09:11:59;;;;;;;3.60;1.93;;;;;;;18.64;100.00;97642.94;5034466;28;103171;-61
2022/10/06 09:14:35;;;;;;;2.10;1.90;;;;;;;18.92;100.00;97639.66;5029884;28;105869;-61
2022/10/06 09:17:09;;;;;;;3.90;1.90;;;;;;;18.92;100.00;97647.75;5029270;28;105367;-60
2022/10/06 09:19:43;;;;;;;2.30;1.63;;;;;;;18.99;100.00;97637.47;5029757;28;101892;-60
2022/10/06 09:22:17;;;;;;;4.33;1.60;;;;;;;19.03;100.00;97643.94;5031331;28;102728;-60
2022/10/06 09:24:49;;;;;;;2.97;1.80;;;;;;;19.40;100.00;97645.19;5030805;28;102621;-60
2022/10/06 09:27:31;;;;;;;2.30;1.73;;;;;;;19.77;100.00;97642.06;5029727;28;101896;-60
2022/10/06 09:29:58;;;;;;;4.80;1.93;;;;;;;19.82;100.00;97634.75;5031016;27;102475;-60
2022/10/06 09:32:29;;;;;;;2.70;1.73;;;;;;;19.87;100.00;97636.59;5028662;28;103752;-60
2022/10/06 09:34:59;;;;;;;2.97;1.60;;;;;;;19.97;100.00;97640.06;5032701;28;101963;-65
2022/10/06 09:37:53;;;;;;;3.93;1.60;;;;;;;19.75;100.00;97630.72;5028910;28;105432;-62
2022/10/06 09:40:37;;;;;;;4.10;1.90;;;;;;;19.67;100.00;97629.41;5012936;28;101854;-59
2022/10/06 09:43:15;;;;;;;3.10;1.87;;;;;;;19.97;100.00;97633.84;5026111;27;105714;-60
2022/10/06 09:45:43;;;;;;;1.50;1.33;;;;;;;19.92;100.00;97634.69;5030054;27;104288;-61
2022/10/06 09:48:22;;;;;;;2.57;1.70;;;;;;;20.13;100.00;97638.09;5030079;27;102010;-60
2022/10/06 09:51:18;;;;;;;2.93;1.53;;;;;;;20.03;100.00;97633.53;5030621;27;102793;-60
2022/10/06 09:54:09;;;;;;;4.57;1.50;;;;;;;20.03;100.00;97638.94;5028636;28;103917;-60
2022/10/06 09:56:42;;;;;;;3.07;1.30;;;;;;;20.15;100.00;97628.63;5034284;28;101698;-61
2022/10/06 09:59:20;;;;;;;4.60;1.70;;;;;;;20.63;100.00;97630.41;5028462;28;105832;-60
2022/10/06 10:01:58;;;;;;;5.03;1.90;;;;;;;20.49;100.00;97629.44;5030932;28;101961;-60
2022/10/06 10:04:29;;;;;;;2.27;1.33;;;;;;;20.31;100.00;97618.50;5030513;28;102557;-60
2022/10/06 10:07:23;;;;;;;3.77;1.43;;;;;;;20.55;100.00;97616.69;5027540;28;102878;-60
2022/10/06 10:09:50;;;;;;;3.13;1.20;;;;;;;20.59;100.00;97634.75;5038245;27;102236;-61
2022/10/06 10:12:26;;;;;;;1.83;1.50;;;;;;;20.14;100.00;97623.50;5010418;28;102712;-61
2022/10/06 10:14:55;;;;;;;2.33;1.50;;;;;;;20.17;100.00;97620.25;5008475;28;105402;-61
2022/10/06 10:17:34;;;;;;;3.50;1.40;;;;;;;20.41;100.00;97619.25;5010131;28;101922;-60
2022/10/06 10:20:26;;;;;;;1.90;1.33;;;;;;;20.88;100.00;97618.53;5013300;28;102917;-61
2022/10/06 10:22:55;;;;;;;2.10;1.37;;;;;;;20.89;100.00;97614.78;5020544;28;101808;-61
2022/10/06 10:25:39;;;;;;;2.00;1.20;;;;;;;20.73;100.00;97613.28;5030365;28;101698;-61
2022/10/06 10:28:16;;;;;;;3.37;1.70;;;;;;;20.83;100.00;97618.59;5029473;27;103429;-61
2022/10/06 10:30:52;;;;;;;4.47;1.30;;;;;;;21.22;100.00;97616.59;5030003;27;101823;-61
2022/10/06 10:33:32;;;;;;;1.53;1.20;;;;;;;21.65;100.00;97620.91;5028663;28;105612;-61
2022/10/06 10:36:26;;;;;;;2.60;1.50;;;;;;;21.23;100.00;97612.78;5027869;28;104341;-61
2022/10/06 10:38:54;;;;;;;1.43;1.33;;;;;;;21.48;100.00;97620.59;5025597;28;101824;-61
2022/10/06 10:41:24;;;;;;;2.33;1.70;;;;;;;21.64;100.00;97617.41;5029691;28;102799;-61
2022/10/06 10:43:55;;;;;;;2.50;1.67;;;;;;;21.65;100.00;97618.22;5032933;28;104338;-61
2022/10/06 10:46:30;;;;;;;1.57;1.47;;;;;;;21.34;100.00;97612.38;5028472;28;103553;-61
2022/10/06 10:49:02;;;;;;;4.10;1.40;;;;;;;21.96;100.00;97622.94;5028789;27;104676;-61
2022/10/06 10:52:07;;;;;;;4.60;1.63;;;;;;;21.98;100.00;97612.63;5030291;28;102006;-61
2022/10/06 10:54:41;;;;;;;3.57;1.50;;;;;;;22.06;100.00;97616.59;5029584;27;105600;-61
2022/10/06 10:57:17;;;;;;;1.67;1.30;;;;;;;21.61;100.00;97614.47;5031032;28;105207;-61
2022/10/06 11:00:02;;;;;;;2.87;1.80;;;;;;;22.17;100.00;97605.28;5032128;28;101888;-61
2022/10/06 11:02:32;;;;;;;4.03;1.73;;;;;;;22.19;100.00;97607.72;5031834;28;105521;-61
2022/10/06 11:05:04;;;;;;;2.07;1.43;;;;;;;22.45;100.00;97608.97;5031483;28;105893;-61
2022/10/06 11:07:36;;;;;;;4.03;1.73;;;;;;;22.21;100.00;97606.31;5035273;28;101901;-61
2022/10/06 11:10:12;;;;;;;1.87;1.60;;;;;;;22.26;100.00;97610.84;5031336;28;105669;-61
2022/10/06 11:13:04;;;;;;;2.53;1.50;;;;;;;21.24;100.00;97608.97;5031581;28;102946;-61
2022/10/06 11:15:54;;;;;;;2.10;1.50;;;;;;;22.11;100.00;97597.53;5032008;28;104930;-61
2022/10/06 11:18:38;;;;;;;1.73;1.40;;;;;;;22.58;100.00;97606.28;5012755;28;102892;-61
2022/10/06 11:21:13;;;;;;;2.27;1.60;;;;;;;22.15;100.00;97606.69;5031006;28;102053;-61
2022/10/06 11:23:53;;;;;;;2.43;1.50;;;;;;;21.70;100.00;97604.66;5031778;28;105181;-61
2022/10/06 11:26:47;;;;;;;6.00;1.77;;;;;;;21.87;100.00;97599.53;5012637;28;102717;-61
2022/10/06 11:29:25;;;;;;;2.27;1.50;;;;;;;21.39;100.00;97596.09;5017028;28;101835;-61
2022/10/06 11:32:01;;;;;;;5.33;1.80;;;;;;;21.44;100.00;97595.19;5034581;28;104833;-61
2022/10/06 11:34:28;;;;;;;2.13;2.00;;;;;;;21.45;100.00;97603.03;5045352;27;101904;-60
2022/10/06 11:37:19;;;;;;;3.30;1.93;;;;;;;22.15;100.00;97593.13;5010863;28;105617;-65
2022/10/06 11:39:51;;;;;;;3.90;2.10;;;;;;;22.50;100.00;97598.81;5029490;28;105035;-60
2022/10/06 11:42:26;;;;;;;5.20;2.27;;;;;;;22.52;100.00;97591.22;5031147;28;101859;-60
2022/10/06 11:45:00;;;;;;;2.57;2.00;;;;;;;22.55;100.00;97595.25;5031497;28;105522;-61
2022/10/06 11:47:59;;;;;;;2.47;1.83;;;;;;;23.18;100.00;97596.25;5030598;28;105984;-61
2022/10/06 11:50:36;;;;;;;2.00;1.70;;;;;;;23.52;100.00;97599.34;5032100;27;102026;-60
2022/10/06 11:53:04;;;;;;;2.70;2.07;;;;;;;23.84;100.00;97600.03;5031087;28;103661;-60
2022/10/06 11:55:32;;;;;;;2.33;1.93;;;;;;;24.04;100.00;97596.06;5033722;27;102024;-60
2022/10/06 11:58:19;;;;;;;4.10;1.97;;;;;;;23.99;100.00;97593.47;5031139;28;104770;-61
2022/10/06 12:00:48;;;;;;;3.23;1.70;;;;;;;24.41;100.00;97591.09;5030455;28;105392;-60
2022/10/06 12:03:48;;;;;;;3.03;1.80;;;;;;;24.34;100.00;97596.16;5032435;28;102349;-60
2022/10/06 12:09:49;;;;;;;6.40;2.00;;;;;;;23.29;100.00;97592.25;5029988;28;105900;-60